ンジャメナ の空港の天気 - METARとTAF

ンジャメナ国際空港 ( FTTJ / NDJ ) - チャド ンジャメナ
飛行場実況気象(Metar)
観測時間01/21 19:00 WAT (01/21 18:00 UTC)
風向・風速北北西 4m/s
視程8000m
天気現象
なし
気温26℃
湿度12%
気圧1011hPa
METARFTTJ 211800Z 33008KT 8000 NSC 26/M06 Q1011 NOSIG
過去の天気等 Google飛行場航空写真 Wunderground天気予報

過去48時間のMETAR

飛行場予報(TAF)
発表時間: 1/21 18:15 WAT (1/21 17:15 UTC)
予報対象時間: 21日19時 WAT ~ 23日1時 WAT
風向・風速北北西 3m/s
22日9時 WAT ~ 22日17時 WAT に一時的に
風向・風速北東 5m/s
22日17時 WAT ~ 22日19時 WAT に徐々に
視程4,000m
天気現象風塵
TAF FTTJ 211715Z 2118/2224 34006KT CAVAK
TEMPO 2208/2216 04010KT
BECMG 2216/2218 4000 DU